createdAt,value
2018-03-07T00:00:12.766Z,116.62
2018-03-07T00:00:46.645Z,121.25
2018-03-07T00:01:20.748Z,118.68
2018-03-07T00:01:54.629Z,114.22
2018-03-07T00:02:28.511Z,116.85
2018-03-07T00:03:02.381Z,116.95
2018-03-07T00:03:36.262Z,121.40
2018-03-07T00:04:10.128Z,113.28
2018-03-07T00:04:43.990Z,114.55
2018-03-07T00:05:17.857Z,116.20
2018-03-07T00:05:52.262Z,128.18
2018-03-07T00:06:26.123Z,112.60
2018-03-07T00:06:59.992Z,119.78
2018-03-07T00:07:33.887Z,112.68
2018-03-07T00:08:07.769Z,109.80
2018-03-07T00:08:41.644Z,110.07
2018-03-07T00:09:15.507Z,107.70
2018-03-07T00:09:49.890Z,109.82
2018-03-07T00:10:23.757Z,117.32
2018-03-07T00:10:57.638Z,119.93
2018-03-07T00:11:31.515Z,113.03
2018-03-07T00:12:05.452Z,123.15
2018-03-07T00:12:39.317Z,112.55
2018-03-07T00:13:19.396Z,119.40
2018-03-07T00:13:58.368Z,117.25
2018-03-07T00:14:46.718Z,111.60
2018-03-07T00:15:26.376Z,115.80
2018-03-07T00:17:43.781Z,108.03
2018-03-07T00:19:00.597Z,106.90
2018-03-07T00:20:36.004Z,105.72
2018-03-07T00:21:22.699Z,99.97
2018-03-07T00:28:33.372Z,89.47
2018-03-07T00:29:10.225Z,100.07
2018-03-07T00:30:49.388Z,106.53
2018-03-07T00:32:45.630Z,109.32
2018-03-07T00:33:30.667Z,105.93
2018-03-07T01:03:46.605Z,96.12
2018-03-07T01:04:20.503Z,110.65
2018-03-07T01:04:54.392Z,101.30
2018-03-07T01:05:28.310Z,104.18
2018-03-07T01:06:02.224Z,106.18
2018-03-07T01:06:36.138Z,106.30
2018-03-07T01:07:10.038Z,116.10
2018-03-07T01:07:44.103Z,110.05
2018-03-07T01:08:18.024Z,119.32
2018-03-07T01:08:51.960Z,120.68
2018-03-07T01:09:25.909Z,113.15
2018-03-07T01:10:01.238Z,117.05
2018-03-07T01:10:37.513Z,121.80
2018-03-07T01:11:14.060Z,107.63
2018-03-07T01:11:50.297Z,114.55
2018-03-07T01:12:26.698Z,107.97
2018-03-07T01:13:03.266Z,117.30
2018-03-07T01:13:37.187Z,112.20
2018-03-07T01:14:11.185Z,111.32
2018-03-07T01:14:47.269Z,119.72
2018-03-07T01:15:23.519Z,115.00
2018-03-07T01:16:00.054Z,112.25
2018-03-07T01:16:36.552Z,116.37
2018-03-07T01:17:13.035Z,128.30
2018-03-07T01:17:49.478Z,119.62
2018-03-07T01:18:23.503Z,118.47
2018-03-07T01:18:57.398Z,109.20
2018-03-07T01:19:34.712Z,124.65
2018-03-07T01:20:11.227Z,122.85
2018-03-07T01:20:47.347Z,120.80
2018-03-07T01:21:24.096Z,118.03
2018-03-07T01:22:01.144Z,115.97
2018-03-07T01:22:37.905Z,115.25
2018-03-07T01:23:11.843Z,118.28
2018-03-07T01:23:45.746Z,114.62
2018-03-07T01:24:22.837Z,106.85
2018-03-07T01:25:00.389Z,126.40
2018-03-07T01:25:36.659Z,108.87
2018-03-07T01:26:13.138Z,118.82
2018-03-07T01:26:50.108Z,113.72
2018-03-07T01:27:26.745Z,119.28
2018-03-07T01:28:00.665Z,122.25
2018-03-07T01:28:34.543Z,111.22
2018-03-07T01:29:08.885Z,119.45
2018-03-07T01:29:45.675Z,117.97
2018-03-07T01:30:23.070Z,116.57
2018-03-07T01:30:59.308Z,124.40
2018-03-07T01:31:35.705Z,115.72
2018-03-07T01:32:12.078Z,118.55
2018-03-07T01:32:46.009Z,126.87
2018-03-07T01:33:19.903Z,119.32
2018-03-07T01:33:56.321Z,124.72
2018-03-07T01:34:32.905Z,126.65
2018-03-07T01:35:08.680Z,119.57
2018-03-07T01:35:45.527Z,112.18
2018-03-07T01:36:22.077Z,121.95
2018-03-07T01:36:58.883Z,118.87
2018-03-07T01:37:32.877Z,120.78
2018-03-07T01:38:06.770Z,118.13
2018-03-07T01:38:43.135Z,124.12
2018-03-07T01:39:18.060Z,111.32
2018-03-07T01:39:51.986Z,117.25
2018-03-07T01:40:25.878Z,119.25
2018-03-07T01:41:00.002Z,120.55
2018-03-07T01:41:33.876Z,115.68
2018-03-07T01:42:07.792Z,115.07
2018-03-07T01:42:41.672Z,126.15
2018-03-07T01:43:15.561Z,115.15
2018-03-07T01:43:49.464Z,124.43
2018-03-07T01:44:23.349Z,136.80
2018-03-07T01:44:57.220Z,126.90
2018-03-07T01:45:31.147Z,118.43
2018-03-07T01:46:05.076Z,119.90
2018-03-07T01:46:38.965Z,117.53
2018-03-07T01:47:12.854Z,125.80
2018-03-07T01:47:46.758Z,121.65
2018-03-07T01:48:20.816Z,122.53
2018-03-07T01:48:54.786Z,127.87
2018-03-07T01:49:28.664Z,131.50
2018-03-07T01:50:02.585Z,128.62
2018-03-07T01:50:36.453Z,123.32
2018-03-07T01:51:10.361Z,121.72
2018-03-07T01:52:05.308Z,131.02
2018-03-07T01:52:39.190Z,119.97
2018-03-07T01:53:13.065Z,115.78
2018-03-07T01:53:46.966Z,118.60
2018-03-07T01:54:20.853Z,136.05
2018-03-07T01:54:54.760Z,127.93
2018-03-07T01:55:28.637Z,117.13
2018-03-07T01:56:02.536Z,129.82
2018-03-07T01:56:36.413Z,125.97
2018-03-07T01:57:10.319Z,127.78
2018-03-07T01:57:44.191Z,123.97
2018-03-07T01:58:18.401Z,119.60
2018-03-07T01:58:52.304Z,124.30
2018-03-07T01:59:26.173Z,122.07
2018-03-07T02:00:00.078Z,120.82
2018-03-07T02:00:33.971Z,126.55
2018-03-07T02:01:07.845Z,120.18
2018-03-07T02:01:41.765Z,120.07
2018-03-07T02:02:15.666Z,124.93
2018-03-07T02:02:49.553Z,131.25
2018-03-07T02:03:23.450Z,123.70
2018-03-07T02:03:57.329Z,121.22
2018-03-07T02:04:31.196Z,120.65
2018-03-07T02:05:05.081Z,124.07
2018-03-07T02:05:38.950Z,128.32
2018-03-07T02:06:12.927Z,122.97
2018-03-07T02:06:46.819Z,124.18
2018-03-07T02:07:20.713Z,130.27
2018-03-07T02:07:54.622Z,124.38
2018-03-07T02:08:28.498Z,117.78
2018-03-07T02:09:02.374Z,121.47
2018-03-07T02:09:36.262Z,124.28
2018-03-07T02:10:10.162Z,117.20
2018-03-07T02:10:44.081Z,133.63
2018-03-07T02:11:17.972Z,120.75
2018-03-07T02:11:51.868Z,127.35
2018-03-07T02:12:25.765Z,116.40
2018-03-07T02:12:59.657Z,120.20
2018-03-07T02:13:33.548Z,120.75
2018-03-07T02:14:07.441Z,114.68
2018-03-07T02:14:41.338Z,110.80
2018-03-07T02:15:15.232Z,115.32
2018-03-07T02:15:49.114Z,116.88
2018-03-07T02:16:22.984Z,114.00
2018-03-07T02:16:56.943Z,124.40
2018-03-07T02:17:30.828Z,120.57
2018-03-07T02:18:04.753Z,113.47
2018-03-07T02:18:38.646Z,128.60
2018-03-07T02:19:12.527Z,123.93
2018-03-07T02:19:46.400Z,117.32
2018-03-07T02:20:20.271Z,114.68
2018-03-07T02:20:54.149Z,122.68
2018-03-07T02:21:28.035Z,114.37
2018-03-07T02:22:01.944Z,111.30
2018-03-07T02:22:35.820Z,121.47
2018-03-07T02:23:09.788Z,121.62
2018-03-07T02:23:43.701Z,125.93
2018-03-07T02:24:17.590Z,117.45
2018-03-07T02:24:51.489Z,115.75
2018-03-07T02:25:25.406Z,121.30
2018-03-07T02:25:59.294Z,118.07
2018-03-07T02:26:33.156Z,118.87
2018-03-07T02:27:07.069Z,131.45
2018-03-07T02:27:40.932Z,128.18
2018-03-07T02:28:14.810Z,114.95
2018-03-07T02:28:48.704Z,126.07
2018-03-07T02:29:23.044Z,118.57
2018-03-07T02:29:56.928Z,122.70
2018-03-07T02:30:30.809Z,113.28
2018-03-07T02:31:04.732Z,116.30
2018-03-07T02:31:38.598Z,121.82
2018-03-07T02:32:12.494Z,113.93
2018-03-07T02:32:47.327Z,115.20
2018-03-07T02:33:21.222Z,129.85
2018-03-07T02:33:55.124Z,120.95
2018-03-07T02:34:29.010Z,119.93
2018-03-07T02:35:02.919Z,129.05
2018-03-07T02:35:36.801Z,124.75
2018-03-07T02:36:16.537Z,119.50
2018-03-07T02:36:50.421Z,113.37
2018-03-07T02:37:24.333Z,129.35
2018-03-07T02:37:58.228Z,121.25
2018-03-07T02:38:32.130Z,116.82
2018-03-07T02:39:06.021Z,118.25
2018-03-07T02:39:39.906Z,120.43
2018-03-07T02:40:13.794Z,118.30
2018-03-07T02:40:47.687Z,120.22
2018-03-07T02:41:21.561Z,126.95
2018-03-07T02:41:55.457Z,121.78
2018-03-07T02:42:29.341Z,111.03
2018-03-07T02:43:03.215Z,126.55
2018-03-07T02:43:37.098Z,114.62
2018-03-07T02:44:10.993Z,129.35
2018-03-07T02:44:44.976Z,111.78
2018-03-07T02:45:18.860Z,111.80
2018-03-07T02:45:52.741Z,116.20
2018-03-07T02:46:26.636Z,121.40
2018-03-07T02:47:00.511Z,114.62
2018-03-07T02:47:34.398Z,119.87
2018-03-07T02:48:08.286Z,122.80
2018-03-07T02:48:42.179Z,120.35
2018-03-07T02:49:16.082Z,114.93
2018-03-07T02:49:49.959Z,118.47
2018-03-07T02:50:23.828Z,129.60
2018-03-07T02:50:57.697Z,119.10
2018-03-07T02:51:31.585Z,118.78
2018-03-07T02:52:05.483Z,116.22
2018-03-07T02:52:40.216Z,120.80
2018-03-07T02:53:14.126Z,116.72
2018-03-07T02:53:48.032Z,115.72
2018-03-07T02:54:21.919Z,117.07
2018-03-07T02:54:55.829Z,106.35
2018-03-07T02:55:29.734Z,119.50
2018-03-07T02:56:06.321Z,115.43
2018-03-07T02:56:40.232Z,116.53
2018-03-07T02:57:14.151Z,122.55
2018-03-07T02:57:48.051Z,121.97
2018-03-07T02:58:21.941Z,120.22
2018-03-07T02:58:55.830Z,110.95
2018-03-07T02:59:29.764Z,112.20
2018-03-07T03:00:03.664Z,117.97
2018-03-07T03:00:37.555Z,118.60
2018-03-07T03:01:11.425Z,127.38
2018-03-07T03:01:45.321Z,121.10
2018-03-07T03:02:19.202Z,116.03
2018-03-07T03:02:53.117Z,118.28
2018-03-07T03:03:27.010Z,126.55
2018-03-07T03:04:01.004Z,114.43
2018-03-07T03:04:34.887Z,125.68
2018-03-07T03:05:08.784Z,118.65
2018-03-07T03:05:42.709Z,113.78
2018-03-07T03:06:16.609Z,112.80
2018-03-07T03:06:50.482Z,111.82
2018-03-07T03:07:24.359Z,117.35
2018-03-07T03:07:58.262Z,123.35
2018-03-07T03:08:32.157Z,117.80
2018-03-07T03:09:06.036Z,116.15
2018-03-07T03:09:39.945Z,123.93
2018-03-07T03:10:13.851Z,116.88
2018-03-07T03:10:47.717Z,120.55
2018-03-07T03:11:21.597Z,126.85
2018-03-07T03:11:55.483Z,110.15
2018-03-07T03:12:29.505Z,120.43
2018-03-07T03:13:03.399Z,116.37
2018-03-07T03:13:37.299Z,118.97
2018-03-07T03:14:11.190Z,131.15
2018-03-07T03:14:45.087Z,122.80
2018-03-07T03:15:18.980Z,111.55
2018-03-07T03:15:52.897Z,108.70
2018-03-07T03:16:26.784Z,112.95
2018-03-07T03:17:00.675Z,114.15
2018-03-07T03:17:34.558Z,122.13
2018-03-07T03:18:08.461Z,115.68
2018-03-07T03:18:42.361Z,124.00
2018-03-07T03:19:16.241Z,121.18
2018-03-07T03:19:50.144Z,114.55
2018-03-07T03:20:24.029Z,117.75
2018-03-07T03:20:57.896Z,117.85
2018-03-07T03:21:31.768Z,117.05
2018-03-07T03:22:05.653Z,127.65
2018-03-07T03:22:39.530Z,126.25
2018-03-07T03:23:13.440Z,128.43
2018-03-07T03:23:47.316Z,125.85
2018-03-07T03:24:21.193Z,118.35
2018-03-07T03:24:55.090Z,125.05
2018-03-07T03:25:28.983Z,111.50
2018-03-07T03:26:02.874Z,110.90
2018-03-07T03:26:36.769Z,121.45
2018-03-07T03:27:10.648Z,114.07
2018-03-07T03:27:44.510Z,112.90
2018-03-07T03:28:18.392Z,127.85
2018-03-07T03:28:52.255Z,112.43
2018-03-07T03:29:26.144Z,114.40
2018-03-07T03:30:00.043Z,121.45
2018-03-07T03:30:33.929Z,124.07
2018-03-07T03:31:10.991Z,107.10
2018-03-07T03:31:45.346Z,110.12
2018-03-07T03:32:19.241Z,115.37
2018-03-07T03:32:53.146Z,119.47
2018-03-07T03:33:27.062Z,116.22
2018-03-07T03:34:00.948Z,131.20
2018-03-07T03:34:34.847Z,121.43
2018-03-07T03:35:08.727Z,120.80
2018-03-07T03:35:42.591Z,111.22
2018-03-07T03:36:16.868Z,115.75
2018-03-07T03:36:50.773Z,116.30
2018-03-07T03:37:24.667Z,122.13
2018-03-07T03:37:58.553Z,117.87
2018-03-07T03:38:32.446Z,117.80
2018-03-07T03:39:06.351Z,119.87
2018-03-07T03:39:40.241Z,119.00
2018-03-07T03:40:14.142Z,122.75
2018-03-07T03:40:48.015Z,126.72
2018-03-07T03:41:21.885Z,120.00
2018-03-07T03:41:55.762Z,120.55
2018-03-07T03:42:29.647Z,115.60
2018-03-07T03:43:03.518Z,119.50
2018-03-07T03:43:37.433Z,120.00
2018-03-07T03:44:11.291Z,115.12
2018-03-07T03:44:45.153Z,118.57
2018-03-07T03:45:19.044Z,123.55
2018-03-07T03:45:52.922Z,119.72
2018-03-07T03:46:26.795Z,121.00
2018-03-07T03:47:00.671Z,119.62
2018-03-07T03:47:34.553Z,115.40
2018-03-07T03:48:08.455Z,121.18
2018-03-07T03:48:42.385Z,114.78
2018-03-07T03:49:16.249Z,123.47
2018-03-07T03:49:50.110Z,122.00
2018-03-07T03:50:23.984Z,126.07
2018-03-07T03:50:57.861Z,120.75
2018-03-07T03:51:31.719Z,108.00
2018-03-07T03:52:05.594Z,118.05
2018-03-07T03:52:39.474Z,111.32
2018-03-07T03:53:13.371Z,127.78
2018-03-07T03:53:47.263Z,126.03
2018-03-07T03:54:21.124Z,118.97
2018-03-07T03:54:55.002Z,126.57
2018-03-07T03:55:28.877Z,118.15
2018-03-07T03:56:02.772Z,119.62
2018-03-07T03:56:36.641Z,112.18
2018-03-07T03:57:10.508Z,120.55
2018-03-07T03:57:44.398Z,116.78
2018-03-07T03:58:18.263Z,119.18
2018-03-07T03:58:52.141Z,115.85
2018-03-07T03:59:26.006Z,107.03
2018-03-07T03:59:59.901Z,123.78
2018-03-07T04:00:37.429Z,120.50
2018-03-07T04:01:13.636Z,108.40
2018-03-07T04:01:47.517Z,127.05
2018-03-07T04:02:21.395Z,121.13
2018-03-07T04:02:55.285Z,119.25
2018-03-07T04:03:29.224Z,119.72
2018-03-07T04:04:03.112Z,117.25
2018-03-07T04:04:36.978Z,111.88
2018-03-07T04:05:10.856Z,115.97
2018-03-07T04:05:45.572Z,112.37
2018-03-07T04:06:19.462Z,110.75
2018-03-07T04:06:53.361Z,115.68
2018-03-07T04:07:27.218Z,99.68
2018-03-07T04:08:01.110Z,112.03
2018-03-07T04:08:34.996Z,114.65
2018-03-07T04:09:08.893Z,99.35
2018-03-07T04:09:42.766Z,117.45
2018-03-07T04:10:16.695Z,112.25
2018-03-07T04:10:50.580Z,112.80
2018-03-07T04:11:24.460Z,109.05
2018-03-07T04:11:58.332Z,114.40
2018-03-07T04:12:32.203Z,115.12
2018-03-07T04:13:06.073Z,108.40
2018-03-07T04:13:39.941Z,118.22
2018-03-07T04:14:13.850Z,106.05
2018-03-07T04:14:47.744Z,106.93
2018-03-07T04:15:21.622Z,117.47
2018-03-07T04:15:55.494Z,109.37
2018-03-07T04:16:29.350Z,123.07
2018-03-07T04:17:03.225Z,101.40
2018-03-07T04:17:37.102Z,110.70
2018-03-07T04:18:11.001Z,112.35
2018-03-07T04:18:44.887Z,112.88
2018-03-07T04:19:18.769Z,124.95
2018-03-07T04:19:52.671Z,113.88
2018-03-07T04:20:26.538Z,129.43
2018-03-07T04:21:00.399Z,113.37
2018-03-07T04:21:34.276Z,120.18
2018-03-07T04:22:09.869Z,118.87
2018-03-07T04:22:43.761Z,111.43
2018-03-07T04:23:17.620Z,120.72
2018-03-07T04:23:51.493Z,109.97
2018-03-07T04:24:25.369Z,111.03
2018-03-07T04:24:59.229Z,110.43
2018-03-07T04:25:33.126Z,107.75
2018-03-07T04:26:07.072Z,119.85
2018-03-07T04:26:40.952Z,114.85
2018-03-07T04:27:14.816Z,121.13
2018-03-07T04:27:48.689Z,119.82
2018-03-07T04:28:22.569Z,116.47
2018-03-07T04:28:56.441Z,112.00
2018-03-07T04:29:30.336Z,109.35
2018-03-07T04:30:04.235Z,111.90
2018-03-07T04:30:38.122Z,115.78
2018-03-07T04:31:11.993Z,108.37
2018-03-07T04:31:45.862Z,104.55
2018-03-07T04:32:19.727Z,116.28
2018-03-07T04:32:53.610Z,115.93
2018-03-07T04:33:27.469Z,118.87
2018-03-07T04:34:01.346Z,109.53
2018-03-07T04:34:35.258Z,117.53
2018-03-07T04:35:09.173Z,116.22
2018-03-07T04:35:43.110Z,112.28
2018-03-07T04:36:17.004Z,115.45
2018-03-07T04:36:50.876Z,109.97
2018-03-07T04:37:24.766Z,125.95
2018-03-07T04:37:58.639Z,120.00
2018-03-07T04:38:32.520Z,126.55
2018-03-07T04:39:07.910Z,121.93
2018-03-07T04:39:44.544Z,135.82
2018-03-07T04:40:21.182Z,119.47
2018-03-07T04:40:57.809Z,111.90
2018-03-07T04:41:34.362Z,118.00
2018-03-07T04:42:10.886Z,119.72
2018-03-07T04:42:44.757Z,120.28
2018-03-07T04:43:18.630Z,111.90
2018-03-07T04:43:55.521Z,122.60
2018-03-07T04:44:31.841Z,121.95
2018-03-07T04:45:09.224Z,138.55
2018-03-07T04:45:46.792Z,133.50
2018-03-07T04:46:21.886Z,129.65
2018-03-07T04:46:58.488Z,120.68
2018-03-07T04:47:32.359Z,134.73
2018-03-07T04:48:06.294Z,117.35
2018-03-07T04:48:40.260Z,130.57
2018-03-07T04:49:16.592Z,137.27
2018-03-07T04:49:51.984Z,124.40
2018-03-07T04:50:28.837Z,126.50
2018-03-07T04:51:06.116Z,128.35
2018-03-07T04:51:42.591Z,122.78
2018-03-07T04:52:16.488Z,115.35
2018-03-07T04:52:50.353Z,113.68
2018-03-07T04:53:26.921Z,106.60
2018-03-07T04:54:02.990Z,122.93
2018-03-07T04:54:39.422Z,129.02
2018-03-07T04:55:15.825Z,119.90
2018-03-07T04:55:52.842Z,117.78
2018-03-07T04:56:29.821Z,128.98
2018-03-07T04:57:03.698Z,137.73
2018-03-07T04:57:37.587Z,125.20
2018-03-07T04:58:13.943Z,122.37
2018-03-07T04:58:51.003Z,113.30
2018-03-07T04:59:27.716Z,108.53
2018-03-07T05:00:04.169Z,108.45
2018-03-07T05:00:41.024Z,118.40
2018-03-07T05:01:17.988Z,112.20
2018-03-07T05:01:51.870Z,109.47
2018-03-07T05:02:25.741Z,140.40
2018-03-07T05:03:00.593Z,135.52
2018-03-07T05:03:37.368Z,115.55
2018-03-07T05:04:14.090Z,115.72
2018-03-07T05:04:50.661Z,151.98
2018-03-07T05:05:27.240Z,136.10
2018-03-07T05:06:03.908Z,113.55
2018-03-07T05:06:37.786Z,114.55
2018-03-07T05:07:11.669Z,120.93
2018-03-07T05:07:47.218Z,120.32
2018-03-07T05:08:21.196Z,125.93
2018-03-07T05:08:55.069Z,128.05
2018-03-07T05:09:28.978Z,119.90
2018-03-07T05:10:02.867Z,123.50
2018-03-07T05:10:36.747Z,128.48
2018-03-07T05:11:13.611Z,152.10
2018-03-07T05:11:47.514Z,143.70
2018-03-07T05:12:21.386Z,123.32
2018-03-07T05:12:55.245Z,127.70
2018-03-07T05:13:29.139Z,122.35
2018-03-07T05:14:03.028Z,131.25
2018-03-07T05:14:36.921Z,130.23
2018-03-07T05:15:10.958Z,119.43
2018-03-07T05:15:44.818Z,120.95
2018-03-07T05:16:18.673Z,119.72
2018-03-07T05:16:52.569Z,111.90
2018-03-07T05:17:26.435Z,115.88
2018-03-07T05:18:00.947Z,120.82
2018-03-07T05:18:34.839Z,130.12
2018-03-07T05:19:08.696Z,117.43
2018-03-07T05:19:42.569Z,127.25
2018-03-07T05:20:16.449Z,146.65
2018-03-07T05:20:50.320Z,131.10
2018-03-07T05:21:24.204Z,117.22
2018-03-07T05:21:58.097Z,128.95
2018-03-07T05:22:31.974Z,132.65
2018-03-07T05:23:05.837Z,136.98
2018-03-07T05:23:39.715Z,131.82
2018-03-07T05:24:13.597Z,120.43
2018-03-07T05:24:47.508Z,121.82
2018-03-07T05:25:21.383Z,117.72
2018-03-07T05:25:55.292Z,116.37
2018-03-07T05:26:29.197Z,112.00
2018-03-07T05:27:03.084Z,117.68
2018-03-07T05:27:36.961Z,151.35
2018-03-07T05:28:10.902Z,185.05
2018-03-07T05:28:44.803Z,176.07
2018-03-07T05:29:18.678Z,141.57
2018-03-07T05:29:52.611Z,145.85
2018-03-07T05:30:26.546Z,128.40
2018-03-07T05:31:00.536Z,159.87
2018-03-07T05:31:34.409Z,146.62
2018-03-07T05:32:08.335Z,161.73
2018-03-07T05:32:42.228Z,139.88
2018-03-07T05:33:16.149Z,136.00
2018-03-07T05:33:50.018Z,127.65
2018-03-07T05:34:23.915Z,124.50
2018-03-07T05:34:57.797Z,120.20
2018-03-07T05:35:31.705Z,118.43
2018-03-07T05:36:05.585Z,136.27
2018-03-07T05:36:39.460Z,129.32
2018-03-07T05:37:13.349Z,136.80
2018-03-07T05:37:47.245Z,177.93
2018-03-07T05:38:21.173Z,165.35
2018-03-07T05:38:55.061Z,158.00
2018-03-07T05:39:28.969Z,138.25
2018-03-07T05:40:02.861Z,126.57
2018-03-07T05:40:36.761Z,129.80
2018-03-07T05:41:10.648Z,122.05
2018-03-07T05:41:44.543Z,125.15
2018-03-07T05:42:18.523Z,117.53
2018-03-07T05:42:52.381Z,110.43
2018-03-07T05:43:26.270Z,117.65
2018-03-07T05:44:00.231Z,124.12
2018-03-07T05:44:36.786Z,101.87
2018-03-07T05:45:10.704Z,110.40
2018-03-07T05:45:44.596Z,120.35
2018-03-07T05:46:18.491Z,110.32
2018-03-07T05:46:52.358Z,113.18
2018-03-07T05:47:26.258Z,126.20
2018-03-07T05:48:00.146Z,120.40
2018-03-07T05:48:34.045Z,123.43
2018-03-07T05:49:07.930Z,114.43
2018-03-07T05:49:41.805Z,112.50
2018-03-07T05:50:15.718Z,108.43
2018-03-07T05:50:49.592Z,115.97
2018-03-07T05:51:23.465Z,118.18
2018-03-07T05:51:57.348Z,142.43
2018-03-07T05:52:31.242Z,120.85
2018-03-07T05:53:05.118Z,128.85
2018-03-07T05:53:38.996Z,117.75
2018-03-07T05:54:12.873Z,120.25
2018-03-07T05:54:46.766Z,114.95
2018-03-07T05:55:20.668Z,121.25
2018-03-07T05:55:54.534Z,114.80
2018-03-07T05:56:28.402Z,125.50
2018-03-07T05:57:02.277Z,124.43
2018-03-07T05:57:36.156Z,134.52
2018-03-07T05:58:10.030Z,120.20
2018-03-07T05:58:43.916Z,131.63
2018-03-07T05:59:17.782Z,119.03
2018-03-07T05:59:51.806Z,104.57
2018-03-07T06:00:25.695Z,118.65
2018-03-07T06:00:59.770Z,111.60
2018-03-07T06:01:33.654Z,116.32
2018-03-07T06:02:07.552Z,124.93
2018-03-07T06:02:41.447Z,118.40
2018-03-07T06:03:15.312Z,118.22
2018-03-07T06:03:49.193Z,118.65
2018-03-07T06:04:23.098Z,120.75
2018-03-07T06:04:56.999Z,115.72
2018-03-07T06:05:30.886Z,119.97
2018-03-07T06:06:04.797Z,115.32
2018-03-07T06:06:38.680Z,112.18
2018-03-07T06:07:12.569Z,107.28
2018-03-07T06:07:46.474Z,114.60
2018-03-07T06:08:20.515Z,112.07
2018-03-07T06:08:54.394Z,114.53
2018-03-07T06:09:28.257Z,107.55
2018-03-07T06:10:02.128Z,104.18
2018-03-07T06:10:36.041Z,105.80
2018-03-07T06:11:09.930Z,106.22
2018-03-07T06:11:43.829Z,109.20
2018-03-07T06:12:17.726Z,112.82
2018-03-07T06:12:51.617Z,105.97
2018-03-07T06:13:25.538Z,108.60
2018-03-07T06:13:59.444Z,105.15
2018-03-07T06:14:33.326Z,107.53
2018-03-07T06:15:07.201Z,110.03
2018-03-07T06:15:41.097Z,107.25
2018-03-07T06:16:15.005Z,111.97
2018-03-07T06:16:48.894Z,97.03
2018-03-07T06:17:22.783Z,108.30
2018-03-07T06:17:56.665Z,97.10
2018-03-07T06:18:30.568Z,103.28
2018-03-07T06:19:05.227Z,99.53
2018-03-07T06:19:39.101Z,106.25
2018-03-07T06:20:12.978Z,98.43
2018-03-07T06:20:46.856Z,101.80
2018-03-07T06:21:20.764Z,96.10
2018-03-07T06:21:54.780Z,86.37
2018-03-07T06:22:28.725Z,108.60
2018-03-07T06:23:02.636Z,103.43
2018-03-07T06:23:36.793Z,102.43
2018-03-07T06:24:10.692Z,104.43
2018-03-07T06:24:46.139Z,98.78
2018-03-07T06:25:22.496Z,102.95
2018-03-07T06:25:59.284Z,108.05
2018-03-07T06:26:34.313Z,104.90
2018-03-07T06:27:10.877Z,104.60
2018-03-07T06:27:46.978Z,95.18
2018-03-07T06:28:20.899Z,99.32
2018-03-07T06:28:54.849Z,104.00
2018-03-07T06:29:34.132Z,103.87
2018-03-07T06:30:08.571Z,100.57
2018-03-07T06:30:45.104Z,105.28
2018-03-07T06:31:20.067Z,104.40
2018-03-07T06:31:55.189Z,98.68
2018-03-07T06:32:29.680Z,92.65
2018-03-07T06:33:05.867Z,95.87
2018-03-07T06:33:40.137Z,101.93
2018-03-07T06:34:14.031Z,101.05
2018-03-07T06:34:51.144Z,105.45
2018-03-07T06:35:26.441Z,96.18
2018-03-07T06:36:00.338Z,108.55
2018-03-07T06:36:37.322Z,104.12
2018-03-07T06:37:14.064Z,105.12
2018-03-07T06:37:50.486Z,95.40
2018-03-07T06:38:27.517Z,96.28
2018-03-07T06:39:04.417Z,100.43
2018-03-07T06:39:41.350Z,104.97
2018-03-07T06:40:15.391Z,104.47
2018-03-07T06:40:49.284Z,96.72
2018-03-07T06:41:25.106Z,100.03
2018-03-07T06:42:04.705Z,92.68
2018-03-07T06:42:40.829Z,103.18
2018-03-07T06:43:21.829Z,105.37
2018-03-07T06:43:57.866Z,96.60
2018-03-07T06:44:35.000Z,95.25
2018-03-07T06:45:09.748Z,95.47
2018-03-07T06:45:43.667Z,101.65
2018-03-07T06:46:17.839Z,97.10
2018-03-07T06:46:52.229Z,107.32
2018-03-07T06:47:29.620Z,93.10
2018-03-07T06:48:04.086Z,104.22
2018-03-07T06:48:45.450Z,98.15
2018-03-07T06:49:22.093Z,104.57
2018-03-07T06:49:56.370Z,104.93
2018-03-07T06:50:30.533Z,102.28
2018-03-07T06:51:05.004Z,97.80
2018-03-07T06:51:38.972Z,103.50
2018-03-07T06:52:15.291Z,100.38
2018-03-07T06:52:50.463Z,98.15
2018-03-07T06:53:24.511Z,100.20
2018-03-07T06:53:58.420Z,98.87
2018-03-07T06:54:32.315Z,105.60
2018-03-07T06:55:06.224Z,97.62
2018-03-07T06:55:40.171Z,101.40
2018-03-07T06:56:14.064Z,105.85
2018-03-07T06:56:48.137Z,107.75
2018-03-07T06:57:23.418Z,96.45
2018-03-07T06:57:57.858Z,102.68
2018-03-07T06:58:32.300Z,111.40
2018-03-07T06:59:06.669Z,98.03
2018-03-07T06:59:40.568Z,103.50
2018-03-07T07:00:15.015Z,101.80
2018-03-07T07:00:48.952Z,109.20
2018-03-07T07:01:22.851Z,103.40
2018-03-07T07:01:57.239Z,99.68
2018-03-07T07:02:31.493Z,101.28
2018-03-07T07:03:05.992Z,104.95
2018-03-07T07:03:39.895Z,112.93
2018-03-07T07:04:13.793Z,108.63
2018-03-07T07:04:47.977Z,104.07
2018-03-07T07:05:21.882Z,105.70
2018-03-07T07:05:55.760Z,103.68
2018-03-07T07:06:29.647Z,105.80
2018-03-07T07:07:03.522Z,109.47
2018-03-07T07:07:37.452Z,109.10
2018-03-07T07:08:11.325Z,98.93
2018-03-07T07:08:45.196Z,103.25
2018-03-07T07:09:19.243Z,99.97
2018-03-07T07:09:53.125Z,108.12
2018-03-07T07:10:27.040Z,99.40
2018-03-07T07:11:00.912Z,108.32
2018-03-07T07:11:34.853Z,107.87
2018-03-07T07:12:08.729Z,102.47
2018-03-07T07:12:42.596Z,100.07
2018-03-07T07:13:16.481Z,110.22
2018-03-07T07:13:50.352Z,102.90
2018-03-07T07:14:24.227Z,104.75
2018-03-07T07:14:58.297Z,98.95
2018-03-07T07:15:32.185Z,115.10
2018-03-07T07:16:06.093Z,109.22
2018-03-07T07:16:40.018Z,111.03
2018-03-07T07:17:13.917Z,111.28
2018-03-07T07:17:47.793Z,108.22
2018-03-07T07:18:21.655Z,117.65
2018-03-07T07:18:55.525Z,110.00
2018-03-07T07:19:29.386Z,105.37
2018-03-07T07:20:04.249Z,109.78
2018-03-07T07:20:38.172Z,105.00
2018-03-07T07:21:12.081Z,109.90
2018-03-07T07:21:45.948Z,111.30
2018-03-07T07:22:19.830Z,106.20
2018-03-07T07:22:53.722Z,104.18
2018-03-07T07:23:27.609Z,107.50
2018-03-07T07:24:01.476Z,110.95
2018-03-07T07:24:35.337Z,109.18
2018-03-07T07:25:09.340Z,104.97
2018-03-07T07:25:43.234Z,106.40
2018-03-07T07:26:17.106Z,99.70
2018-03-07T07:26:51.026Z,101.38
2018-03-07T07:27:24.976Z,103.57
2018-03-07T07:27:59.027Z,102.50
2018-03-07T07:28:32.934Z,121.35
2018-03-07T07:29:06.790Z,101.95
2018-03-07T07:29:40.704Z,102.95
2018-03-07T07:30:15.698Z,105.28
2018-03-07T07:30:49.624Z,103.10
2018-03-07T07:31:23.493Z,111.68
2018-03-07T07:31:57.352Z,104.32
2018-03-07T07:32:31.205Z,120.20
2018-03-07T07:33:05.202Z,105.07
2018-03-07T07:33:39.073Z,101.85
2018-03-07T07:34:12.937Z,116.80
2018-03-07T07:34:46.992Z,104.20
2018-03-07T07:35:20.880Z,105.97
2018-03-07T07:35:54.774Z,97.03
2018-03-07T07:36:30.066Z,105.20
2018-03-07T07:37:03.927Z,99.97
2018-03-07T07:37:37.797Z,110.93
2018-03-07T07:38:11.684Z,104.50
2018-03-07T07:38:45.550Z,101.28
2018-03-07T07:39:19.429Z,103.78
2018-03-07T07:39:53.303Z,92.10
2018-03-07T07:40:27.174Z,105.18
2018-03-07T07:41:01.041Z,99.95
2018-03-07T07:41:34.938Z,100.93
2018-03-07T07:42:08.810Z,108.85
2018-03-07T07:42:42.666Z,107.90
2018-03-07T07:43:16.543Z,91.85
2018-03-07T07:43:50.431Z,116.50
2018-03-07T07:44:24.303Z,105.55
2018-03-07T07:44:58.174Z,108.90
2018-03-07T07:45:32.033Z,107.63
2018-03-07T07:46:05.946Z,110.15
2018-03-07T07:46:40.129Z,102.07
2018-03-07T07:47:14.067Z,109.65
2018-03-07T07:47:47.947Z,100.28
2018-03-07T07:48:24.886Z,98.12
2018-03-07T07:48:59.225Z,99.30
2018-03-07T07:49:33.125Z,103.85
2018-03-07T07:50:06.995Z,101.82
2018-03-07T07:50:40.850Z,96.05
2018-03-07T07:51:14.745Z,111.60
2018-03-07T07:51:48.612Z,103.85
2018-03-07T07:52:22.499Z,98.40
2018-03-07T07:52:56.349Z,97.70